sensor_id;sensor_type;location;lat;lon;timestamp;pressure;altitude;pressure_sealevel;temperature;humidity
60583;BME280;46415;47.536;19.066;2022-08-19T00:00:21;99893.66;;;25.86;54.27
60583;BME280;46415;47.536;19.066;2022-08-19T00:03:24;99891.84;;;25.87;54.06
60583;BME280;46415;47.536;19.066;2022-08-19T00:06:29;99897.34;;;25.85;57.02
60583;BME280;46415;47.536;19.066;2022-08-19T00:09:32;99895.97;;;25.89;58.80
60583;BME280;46415;47.536;19.066;2022-08-19T00:12:34;99895.59;;;25.70;60.19
60583;BME280;46415;47.536;19.066;2022-08-19T00:15:48;99899.16;;;25.54;60.76
60583;BME280;46415;47.536;19.066;2022-08-19T00:18:51;99892.41;;;25.43;61.42
60583;BME280;46415;47.536;19.066;2022-08-19T00:21:53;99899.72;;;25.41;61.31
60583;BME280;46415;47.536;19.066;2022-08-19T00:24:56;99889.78;;;25.35;61.69
60583;BME280;46415;47.536;19.066;2022-08-19T00:28:04;99894.56;;;25.40;61.66
60583;BME280;46415;47.536;19.066;2022-08-19T00:31:08;99886.97;;;25.37;61.65
60583;BME280;46415;47.536;19.066;2022-08-19T00:34:12;99885.16;;;25.29;61.67
60583;BME280;46415;47.536;19.066;2022-08-19T00:37:15;99899.63;;;25.27;61.83
60583;BME280;46415;47.536;19.066;2022-08-19T00:40:19;99893.13;;;25.37;60.52
60583;BME280;46415;47.536;19.066;2022-08-19T00:43:23;99896.63;;;25.30;60.99
60583;BME280;46415;47.536;19.066;2022-08-19T00:46:28;99888.22;;;25.18;61.01
60583;BME280;46415;47.536;19.066;2022-08-19T00:49:36;99896.50;;;25.15;61.11
60583;BME280;46415;47.536;19.066;2022-08-19T00:52:43;99887.84;;;25.21;60.49
60583;BME280;46415;47.536;19.066;2022-08-19T00:55:50;99886.56;;;25.17;60.69
60583;BME280;46415;47.536;19.066;2022-08-19T00:58:56;99874.56;;;25.21;61.44
60583;BME280;46415;47.536;19.066;2022-08-19T01:02:00;99882.75;;;25.11;62.29
60583;BME280;46415;47.536;19.066;2022-08-19T01:05:07;99878.00;;;24.99;63.13
60583;BME280;46415;47.536;19.066;2022-08-19T01:08:11;99880.34;;;24.94;64.70
60583;BME280;46415;47.536;19.066;2022-08-19T01:11:16;99873.03;;;24.96;64.98
60583;BME280;46415;47.536;19.066;2022-08-19T01:14:19;99875.69;;;24.88;66.04
60583;BME280;46415;47.536;19.066;2022-08-19T01:17:22;99886.50;;;24.78;66.35
60583;BME280;46415;47.536;19.066;2022-08-19T01:20:24;99891.66;;;24.71;66.83
60583;BME280;46415;47.536;19.066;2022-08-19T01:23:27;99887.03;;;24.65;65.48
60583;BME280;46415;47.536;19.066;2022-08-19T01:27:20;99868.62;;;25.19;61.94
60583;BME280;46415;47.536;19.066;2022-08-19T01:30:30;99868.62;;;25.19;61.94
60583;BME280;46415;47.536;19.066;2022-08-19T01:33:33;99871.25;;;24.56;63.52
60583;BME280;46415;47.536;19.066;2022-08-19T01:36:41;99875.25;;;24.52;63.83
60583;BME280;46415;47.536;19.066;2022-08-19T01:39:44;99878.59;;;24.46;64.12
60583;BME280;46415;47.536;19.066;2022-08-19T01:42:48;99876.56;;;24.56;63.72
60583;BME280;46415;47.536;19.066;2022-08-19T01:45:51;99864.16;;;24.48;64.01
60583;BME280;46415;47.536;19.066;2022-08-19T01:48:55;99856.87;;;24.34;64.45
60583;BME280;46415;47.536;19.066;2022-08-19T01:51:59;99863.69;;;24.28;64.54
60583;BME280;46415;47.536;19.066;2022-08-19T01:55:04;99857.06;;;24.24;64.35
60583;BME280;46415;47.536;19.066;2022-08-19T01:58:12;99852.44;;;24.18;64.34
60583;BME280;46415;47.536;19.066;2022-08-19T02:01:17;99848.59;;;24.21;63.71
60583;BME280;46415;47.536;19.066;2022-08-19T02:04:20;99841.28;;;24.15;63.86
60583;BME280;46415;47.536;19.066;2022-08-19T02:07:23;99844.09;;;24.13;63.82
60583;BME280;46415;47.536;19.066;2022-08-19T02:10:26;99847.25;;;24.09;64.02
60583;BME280;46415;47.536;19.066;2022-08-19T02:13:29;99845.94;;;24.21;63.05
60583;BME280;46415;47.536;19.066;2022-08-19T02:16:32;99836.97;;;24.14;63.14
60583;BME280;46415;47.536;19.066;2022-08-19T02:19:35;99829.88;;;24.06;63.53
60583;BME280;46415;47.536;19.066;2022-08-19T02:22:43;99822.38;;;24.01;63.91
60583;BME280;46415;47.536;19.066;2022-08-19T02:25:47;99846.59;;;23.90;64.63
60583;BME280;46415;47.536;19.066;2022-08-19T02:28:50;99841.28;;;23.82;65.36
60583;BME280;46415;47.536;19.066;2022-08-19T02:31:53;99834.66;;;23.78;65.39
60583;BME280;46415;47.536;19.066;2022-08-19T02:34:56;99826.22;;;23.83;65.65
60583;BME280;46415;47.536;19.066;2022-08-19T02:37:58;99831.50;;;23.75;66.67
60583;BME280;46415;47.536;19.066;2022-08-19T02:41:23;99829.03;;;23.65;67.93
60583;BME280;46415;47.536;19.066;2022-08-19T02:44:28;99843.09;;;23.57;69.08
60583;BME280;46415;47.536;19.066;2022-08-19T02:47:33;99846.22;;;23.53;70.18
60583;BME280;46415;47.536;19.066;2022-08-19T02:50:40;99847.16;;;23.44;69.83
60583;BME280;46415;47.536;19.066;2022-08-19T02:53:55;99847.50;;;23.41;68.59
60583;BME280;46415;47.536;19.066;2022-08-19T02:56:58;99853.94;;;23.38;68.42
60583;BME280;46415;47.536;19.066;2022-08-19T03:00:04;99853.75;;;23.32;68.15
60583;BME280;46415;47.536;19.066;2022-08-19T03:03:07;99862.31;;;23.26;68.42
60583;BME280;46415;47.536;19.066;2022-08-19T03:06:13;99872.91;;;23.17;69.01
60583;BME280;46415;47.536;19.066;2022-08-19T03:09:18;99883.94;;;23.13;69.05
60583;BME280;46415;47.536;19.066;2022-08-19T03:12:21;99873.53;;;23.11;69.17
60583;BME280;46415;47.536;19.066;2022-08-19T03:15:24;99873.91;;;23.25;69.01
60583;BME280;46415;47.536;19.066;2022-08-19T03:18:27;99869.63;;;23.24;69.38
60583;BME280;46415;47.536;19.066;2022-08-19T03:21:32;99887.13;;;23.25;69.59
60583;BME280;46415;47.536;19.066;2022-08-19T03:24:36;99877.56;;;23.24;69.90
60583;BME280;46415;47.536;19.066;2022-08-19T03:27:40;99889.44;;;23.19;69.62
60583;BME280;46415;47.536;19.066;2022-08-19T03:31:05;99888.81;;;23.26;69.17
60583;BME280;46415;47.536;19.066;2022-08-19T03:34:30;99887.31;;;23.23;69.08
60583;BME280;46415;47.536;19.066;2022-08-19T03:37:33;99888.84;;;23.34;68.45
60583;BME280;46415;47.536;19.066;2022-08-19T03:40:39;99891.16;;;23.29;68.62
60583;BME280;46415;47.536;19.066;2022-08-19T03:43:42;99896.91;;;23.24;68.46
60583;BME280;46415;47.536;19.066;2022-08-19T03:46:53;99888.16;;;23.24;68.16
60583;BME280;46415;47.536;19.066;2022-08-19T03:49:58;99895.28;;;23.23;67.89
60583;BME280;46415;47.536;19.066;2022-08-19T03:53:00;99889.81;;;23.33;67.42
60583;BME280;46415;47.536;19.066;2022-08-19T03:56:03;99890.47;;;23.27;67.65
60583;BME280;46415;47.536;19.066;2022-08-19T03:59:08;99895.81;;;23.35;67.39
60583;BME280;46415;47.536;19.066;2022-08-19T04:02:12;99900.06;;;23.28;67.88
60583;BME280;46415;47.536;19.066;2022-08-19T04:05:15;99904.03;;;23.24;67.68
60583;BME280;46415;47.536;19.066;2022-08-19T04:08:18;99912.34;;;23.29;68.27
60583;BME280;46415;47.536;19.066;2022-08-19T04:11:25;99906.22;;;23.28;68.62
60583;BME280;46415;47.536;19.066;2022-08-19T04:14:46;99910.97;;;23.25;69.46
60583;BME280;46415;47.536;19.066;2022-08-19T04:17:49;99917.63;;;23.29;69.89
60583;BME280;46415;47.536;19.066;2022-08-19T04:20:51;99920.09;;;23.22;70.42
60583;BME280;46415;47.536;19.066;2022-08-19T04:23:56;99925.72;;;23.27;70.30
60583;BME280;46415;47.536;19.066;2022-08-19T04:27:00;99930.19;;;23.27;70.36
60583;BME280;46415;47.536;19.066;2022-08-19T04:30:04;99925.37;;;23.30;69.55
60583;BME280;46415;47.536;19.066;2022-08-19T04:33:07;99924.44;;;23.39;68.52
60583;BME280;46415;47.536;19.066;2022-08-19T04:36:18;99921.03;;;23.47;66.98
60583;BME280;46415;47.536;19.066;2022-08-19T04:39:26;99922.38;;;23.51;67.12
60583;BME280;46415;47.536;19.066;2022-08-19T04:42:49;99931.81;;;23.53;67.35
60583;BME280;46415;47.536;19.066;2022-08-19T04:45:53;99932.00;;;23.60;66.94
60583;BME280;46415;47.536;19.066;2022-08-19T04:49:04;99939.47;;;23.65;67.09
60583;BME280;46415;47.536;19.066;2022-08-19T04:52:14;99941.31;;;23.72;66.51
60583;BME280;46415;47.536;19.066;2022-08-19T04:55:17;99936.72;;;23.82;66.35
60583;BME280;46415;47.536;19.066;2022-08-19T04:58:20;99934.06;;;23.90;66.12
60583;BME280;46415;47.536;19.066;2022-08-19T05:01:27;99924.81;;;23.94;65.79
60583;BME280;46415;47.536;19.066;2022-08-19T05:04:31;99931.59;;;24.05;65.76
60583;BME280;46415;47.536;19.066;2022-08-19T05:07:35;99926.97;;;24.15;65.46
60583;BME280;46415;47.536;19.066;2022-08-19T05:10:39;99933.63;;;24.19;65.31
60583;BME280;46415;47.536;19.066;2022-08-19T05:13:43;99939.28;;;24.32;64.44
60583;BME280;46415;47.536;19.066;2022-08-19T05:16:46;99927.84;;;24.48;63.91
60583;BME280;46415;47.536;19.066;2022-08-19T05:19:49;99934.13;;;24.63;62.69
60583;BME280;46415;47.536;19.066;2022-08-19T05:23:11;99935.09;;;24.78;62.49
60583;BME280;46415;47.536;19.066;2022-08-19T05:26:25;99937.56;;;24.80;65.22
60583;BME280;46415;47.536;19.066;2022-08-19T05:29:32;99942.75;;;24.90;63.07
60583;BME280;46415;47.536;19.066;2022-08-19T05:32:38;99940.72;;;25.00;62.25
60583;BME280;46415;47.536;19.066;2022-08-19T05:35:44;99934.22;;;25.10;61.59
60583;BME280;46415;47.536;19.066;2022-08-19T05:38:47;99933.84;;;25.21;60.78
60583;BME280;46415;47.536;19.066;2022-08-19T05:41:52;99938.31;;;25.29;60.46
60583;BME280;46415;47.536;19.066;2022-08-19T05:44:56;99931.13;;;25.38;59.26
60583;BME280;46415;47.536;19.066;2022-08-19T05:47:58;99937.41;;;25.45;59.04
60583;BME280;46415;47.536;19.066;2022-08-19T05:51:05;99940.66;;;25.63;58.72
60583;BME280;46415;47.536;19.066;2022-08-19T05:54:11;99936.31;;;25.70;58.60
60583;BME280;46415;47.536;19.066;2022-08-19T05:57:15;99945.53;;;25.82;58.41
60583;BME280;46415;47.536;19.066;2022-08-19T06:00:18;99946.63;;;25.96;57.46
60583;BME280;46415;47.536;19.066;2022-08-19T06:03:26;99947.22;;;26.06;57.54
60583;BME280;46415;47.536;19.066;2022-08-19T06:06:29;99943.19;;;26.10;56.24
60583;BME280;46415;47.536;19.066;2022-08-19T06:09:32;99945.50;;;26.13;56.88
60583;BME280;46415;47.536;19.066;2022-08-19T06:12:35;99941.59;;;26.32;55.65
60583;BME280;46415;47.536;19.066;2022-08-19T06:15:38;99950.44;;;26.47;55.04
60583;BME280;46415;47.536;19.066;2022-08-19T06:18:41;99944.75;;;26.50;54.89
60583;BME280;46415;47.536;19.066;2022-08-19T06:21:48;99940.28;;;26.51;54.16
60583;BME280;46415;47.536;19.066;2022-08-19T06:24:50;99941.66;;;26.61;54.22
60583;BME280;46415;47.536;19.066;2022-08-19T06:27:56;99944.62;;;26.81;53.16
60583;BME280;46415;47.536;19.066;2022-08-19T06:31:27;99946.97;;;26.99;52.39
60583;BME280;46415;47.536;19.066;2022-08-19T06:34:32;99928.16;;;27.15;52.00
60583;BME280;46415;47.536;19.066;2022-08-19T06:37:37;99925.84;;;27.27;52.09
60583;BME280;46415;47.536;19.066;2022-08-19T06:40:45;99923.91;;;27.20;51.40
60583;BME280;46415;47.536;19.066;2022-08-19T06:43:47;99925.84;;;27.27;52.02
60583;BME280;46415;47.536;19.066;2022-08-19T06:46:55;99926.47;;;27.43;51.50
60583;BME280;46415;47.536;19.066;2022-08-19T06:49:59;99926.47;;;27.58;51.08
60583;BME280;46415;47.536;19.066;2022-08-19T06:53:11;99929.09;;;27.73;50.52
60583;BME280;46415;47.536;19.066;2022-08-19T06:56:15;99935.16;;;27.81;50.41
60583;BME280;46415;47.536;19.066;2022-08-19T06:59:21;99930.06;;;27.86;50.21
60583;BME280;46415;47.536;19.066;2022-08-19T07:02:26;99922.56;;;27.96;50.08
60583;BME280;46415;47.536;19.066;2022-08-19T07:05:29;99926.38;;;28.09;49.77
60583;BME280;46415;47.536;19.066;2022-08-19T07:08:34;99921.88;;;28.09;50.03
60583;BME280;46415;47.536;19.066;2022-08-19T07:11:49;99936.03;;;28.24;49.67
60583;BME280;46415;47.536;19.066;2022-08-19T07:14:52;99937.28;;;28.28;50.10
60583;BME280;46415;47.536;19.066;2022-08-19T07:17:56;99952.84;;;28.25;50.54
60583;BME280;46415;47.536;19.066;2022-08-19T07:21:06;99952.84;;;28.46;49.83
60583;BME280;46415;47.536;19.066;2022-08-19T07:24:11;99958.38;;;28.72;49.43
60583;BME280;46415;47.536;19.066;2022-08-19T07:27:14;99946.44;;;28.96;48.75
60583;BME280;46415;47.536;19.066;2022-08-19T07:30:17;99951.88;;;29.09;48.62
60583;BME280;46415;47.536;19.066;2022-08-19T07:33:20;99949.47;;;29.21;47.49
60583;BME280;46415;47.536;19.066;2022-08-19T07:36:26;99946.66;;;29.29;46.72
60583;BME280;46415;47.536;19.066;2022-08-19T07:39:36;99941.38;;;29.36;47.83
60583;BME280;46415;47.536;19.066;2022-08-19T07:42:39;99942.66;;;29.46;46.16
60583;BME280;46415;47.536;19.066;2022-08-19T07:45:42;99935.28;;;29.61;47.10
60583;BME280;46415;47.536;19.066;2022-08-19T07:48:45;99941.94;;;29.79;46.14
60583;BME280;46415;47.536;19.066;2022-08-19T07:51:54;99937.50;;;30.06;45.03
60583;BME280;46415;47.536;19.066;2022-08-19T07:54:58;99928.88;;;30.23;44.53
60583;BME280;46415;47.536;19.066;2022-08-19T07:58:02;99934.44;;;30.35;44.10
60583;BME280;46415;47.536;19.066;2022-08-19T08:01:10;99938.81;;;30.56;44.31
60583;BME280;46415;47.536;19.066;2022-08-19T08:04:13;99931.38;;;30.71;41.53
60583;BME280;46415;47.536;19.066;2022-08-19T08:07:35;99932.19;;;31.04;42.39
60583;BME280;46415;47.536;19.066;2022-08-19T08:10:59;99933.75;;;31.25;40.00
60583;BME280;46415;47.536;19.066;2022-08-19T08:14:02;99920.09;;;31.40;38.71
60583;BME280;46415;47.536;19.066;2022-08-19T08:17:08;99924.94;;;31.69;38.06
60583;BME280;46415;47.536;19.066;2022-08-19T08:20:13;99919.41;;;31.95;37.54
60583;BME280;46415;47.536;19.066;2022-08-19T08:23:16;99921.78;;;32.17;37.48
60583;BME280;46415;47.536;19.066;2022-08-19T08:26:26;99937.19;;;32.28;37.03
60583;BME280;46415;47.536;19.066;2022-08-19T08:29:30;99922.94;;;32.27;36.44
60583;BME280;46415;47.536;19.066;2022-08-19T08:32:37;99934.59;;;32.39;35.53
60583;BME280;46415;47.536;19.066;2022-08-19T08:35:42;99929.44;;;32.38;35.83
60583;BME280;46415;47.536;19.066;2022-08-19T08:38:46;99926.03;;;32.49;35.57
60583;BME280;46415;47.536;19.066;2022-08-19T08:41:51;99927.56;;;32.70;35.20
60583;BME280;46415;47.536;19.066;2022-08-19T08:45:00;99931.72;;;32.84;34.71
60583;BME280;46415;47.536;19.066;2022-08-19T08:48:20;99926.63;;;33.19;33.76
60583;BME280;46415;47.536;19.066;2022-08-19T08:51:31;99924.53;;;33.21;32.86
60583;BME280;46415;47.536;19.066;2022-08-19T08:54:42;99915.28;;;33.35;32.95
60583;BME280;46415;47.536;19.066;2022-08-19T08:58:10;99903.44;;;33.54;32.34
60583;BME280;46415;47.536;19.066;2022-08-19T09:01:16;99884.16;;;33.69;31.74
60583;BME280;46415;47.536;19.066;2022-08-19T09:04:19;99888.28;;;33.42;32.45
60583;BME280;46415;47.536;19.066;2022-08-19T09:07:39;99899.56;;;33.32;32.18
60583;BME280;46415;47.536;19.066;2022-08-19T09:10:53;99896.66;;;33.34;32.62
60583;BME280;46415;47.536;19.066;2022-08-19T09:17:02;99897.19;;;33.42;32.36
60583;BME280;46415;47.536;19.066;2022-08-19T09:20:15;99896.75;;;33.57;31.98
60583;BME280;46415;47.536;19.066;2022-08-19T09:23:20;99901.94;;;33.58;31.89
60583;BME280;46415;47.536;19.066;2022-08-19T09:26:28;99895.16;;;33.68;31.67
60583;BME280;46415;47.536;19.066;2022-08-19T09:29:52;99895.00;;;33.81;31.88
60583;BME280;46415;47.536;19.066;2022-08-19T09:32:56;99888.84;;;34.03;31.70
60583;BME280;46415;47.536;19.066;2022-08-19T09:36:08;99885.13;;;34.16;31.28
60583;BME280;46415;47.536;19.066;2022-08-19T09:39:11;99889.41;;;34.35;31.35
60583;BME280;46415;47.536;19.066;2022-08-19T09:42:18;99879.13;;;34.44;30.69
60583;BME280;46415;47.536;19.066;2022-08-19T09:45:32;99872.06;;;34.55;30.22
60583;BME280;46415;47.536;19.066;2022-08-19T09:48:36;99861.06;;;34.68;30.22
60583;BME280;46415;47.536;19.066;2022-08-19T09:51:40;99856.84;;;34.72;30.22
60583;BME280;46415;47.536;19.066;2022-08-19T09:54:42;99849.75;;;34.94;29.55
60583;BME280;46415;47.536;19.066;2022-08-19T09:57:45;99857.78;;;34.77;29.33
60583;BME280;46415;47.536;19.066;2022-08-19T10:00:48;99846.00;;;34.95;29.21
60583;BME280;46415;47.536;19.066;2022-08-19T10:03:55;99835.66;;;35.04;28.79
60583;BME280;46415;47.536;19.066;2022-08-19T10:06:58;99836.94;;;35.13;29.01
60583;BME280;46415;47.536;19.066;2022-08-19T10:10:03;99838.56;;;35.26;28.53
60583;BME280;46415;47.536;19.066;2022-08-19T10:13:09;99830.94;;;35.22;28.40
60583;BME280;46415;47.536;19.066;2022-08-19T10:16:15;99839.13;;;35.28;28.53
60583;BME280;46415;47.536;19.066;2022-08-19T10:19:20;99838.41;;;35.32;28.31
60583;BME280;46415;47.536;19.066;2022-08-19T10:22:27;99837.41;;;35.50;28.41
60583;BME280;46415;47.536;19.066;2022-08-19T10:25:31;99836.59;;;35.66;27.86
60583;BME280;46415;47.536;19.066;2022-08-19T10:28:36;99826.78;;;35.60;28.10
60583;BME280;46415;47.536;19.066;2022-08-19T10:31:43;99822.84;;;35.68;28.24
60583;BME280;46415;47.536;19.066;2022-08-19T10:35:05;99826.34;;;35.80;27.74
60583;BME280;46415;47.536;19.066;2022-08-19T10:38:10;99826.94;;;35.98;27.40
60583;BME280;46415;47.536;19.066;2022-08-19T10:41:19;99812.44;;;36.21;27.13
60583;BME280;46415;47.536;19.066;2022-08-19T10:44:22;99828.97;;;36.25;27.02
60583;BME280;46415;47.536;19.066;2022-08-19T10:47:25;99821.09;;;36.40;26.70
60583;BME280;46415;47.536;19.066;2022-08-19T10:50:33;99819.38;;;36.34;26.72
60583;BME280;46415;47.536;19.066;2022-08-19T10:53:55;99823.69;;;36.35;26.86
60583;BME280;46415;47.536;19.066;2022-08-19T10:56:58;99806.19;;;36.37;26.63
60583;BME280;46415;47.536;19.066;2022-08-19T11:00:01;99831.03;;;36.56;27.00
60583;BME280;46415;47.536;19.066;2022-08-19T11:03:03;99825.50;;;36.46;26.69
60583;BME280;46415;47.536;19.066;2022-08-19T11:06:07;99826.91;;;36.32;27.33
60583;BME280;46415;47.536;19.066;2022-08-19T11:09:10;99824.69;;;36.46;27.46
60583;BME280;46415;47.536;19.066;2022-08-19T11:12:14;99820.53;;;36.60;26.29
60583;BME280;46415;47.536;19.066;2022-08-19T11:15:17;99812.78;;;36.63;25.97
60583;BME280;46415;47.536;19.066;2022-08-19T11:18:20;99819.00;;;36.86;26.14
60583;BME280;46415;47.536;19.066;2022-08-19T11:21:28;99816.47;;;36.57;26.08
60583;BME280;46415;47.536;19.066;2022-08-19T11:24:34;99820.38;;;36.66;25.96
60583;BME280;46415;47.536;19.066;2022-08-19T11:27:39;99814.50;;;36.69;25.75
60583;BME280;46415;47.536;19.066;2022-08-19T11:30:44;99812.47;;;36.82;26.01
60583;BME280;46415;47.536;19.066;2022-08-19T11:33:47;99814.56;;;37.18;25.70
60583;BME280;46415;47.536;19.066;2022-08-19T11:36:55;99807.34;;;37.07;25.80
60583;BME280;46415;47.536;19.066;2022-08-19T11:40:01;99802.37;;;37.20;25.63
60583;BME280;46415;47.536;19.066;2022-08-19T11:43:04;99808.75;;;37.36;25.86
60583;BME280;46415;47.536;19.066;2022-08-19T11:46:09;99806.44;;;37.45;25.02
60583;BME280;46415;47.536;19.066;2022-08-19T11:49:14;99808.50;;;37.59;24.64
60583;BME280;46415;47.536;19.066;2022-08-19T11:52:17;99810.97;;;37.66;24.07
60583;BME280;46415;47.536;19.066;2022-08-19T11:55:20;99807.75;;;37.69;24.17
60583;BME280;46415;47.536;19.066;2022-08-19T11:58:23;99800.75;;;37.73;24.31
60583;BME280;46415;47.536;19.066;2022-08-19T12:01:27;99794.00;;;37.76;24.27
60583;BME280;46415;47.536;19.066;2022-08-19T12:04:29;99795.75;;;37.92;24.12
60583;BME280;46415;47.536;19.066;2022-08-19T12:07:33;99791.16;;;38.29;23.70
60583;BME280;46415;47.536;19.066;2022-08-19T12:10:36;99785.75;;;38.87;22.91
60583;BME280;46415;47.536;19.066;2022-08-19T12:13:39;99774.16;;;39.06;22.58
60583;BME280;46415;47.536;19.066;2022-08-19T12:16:44;99779.91;;;39.20;22.59
60583;BME280;46415;47.536;19.066;2022-08-19T12:19:54;99782.00;;;38.98;22.66
60583;BME280;46415;47.536;19.066;2022-08-19T12:22:57;99777.78;;;38.60;22.72
60583;BME280;46415;47.536;19.066;2022-08-19T12:25:59;99780.09;;;38.36;23.13
60583;BME280;46415;47.536;19.066;2022-08-19T12:29:03;99779.22;;;38.25;23.04
60583;BME280;46415;47.536;19.066;2022-08-19T12:32:06;99774.78;;;38.56;22.98
60583;BME280;46415;47.536;19.066;2022-08-19T12:35:12;99779.06;;;38.47;23.09
60583;BME280;46415;47.536;19.066;2022-08-19T12:38:14;99779.66;;;38.54;23.26
60583;BME280;46415;47.536;19.066;2022-08-19T12:41:18;99777.59;;;38.87;23.20
60583;BME280;46415;47.536;19.066;2022-08-19T12:44:22;99781.69;;;38.89;22.86
60583;BME280;46415;47.536;19.066;2022-08-19T12:47:33;99768.53;;;38.56;23.10
60583;BME280;46415;47.536;19.066;2022-08-19T12:50:41;99765.53;;;38.47;23.46
60583;BME280;46415;47.536;19.066;2022-08-19T12:53:44;99764.69;;;38.47;23.23
60583;BME280;46415;47.536;19.066;2022-08-19T12:56:47;99756.50;;;38.36;23.28
60583;BME280;46415;47.536;19.066;2022-08-19T12:59:53;99753.91;;;38.10;23.58
60583;BME280;46415;47.536;19.066;2022-08-19T13:02:56;99742.34;;;38.24;23.14
60583;BME280;46415;47.536;19.066;2022-08-19T13:05:59;99736.78;;;38.56;22.97
60583;BME280;46415;47.536;19.066;2022-08-19T13:09:03;99738.22;;;38.74;22.45
60583;BME280;46415;47.536;19.066;2022-08-19T13:12:06;99739.12;;;38.37;22.74
60583;BME280;46415;47.536;19.066;2022-08-19T13:15:10;99752.72;;;38.00;23.41
60583;BME280;46415;47.536;19.066;2022-08-19T13:18:14;99753.50;;;37.96;22.94
60583;BME280;46415;47.536;19.066;2022-08-19T13:21:16;99745.34;;;37.91;23.43
60583;BME280;46415;47.536;19.066;2022-08-19T13:24:24;99745.75;;;38.05;22.87
60583;BME280;46415;47.536;19.066;2022-08-19T13:27:35;99738.59;;;38.35;23.18
60583;BME280;46415;47.536;19.066;2022-08-19T13:30:38;99733.69;;;38.37;22.63
60583;BME280;46415;47.536;19.066;2022-08-19T13:34:00;99733.34;;;38.19;22.68
60583;BME280;46415;47.536;19.066;2022-08-19T13:37:04;99721.59;;;38.03;23.31
60583;BME280;46415;47.536;19.066;2022-08-19T13:40:09;99739.25;;;37.74;23.38
60583;BME280;46415;47.536;19.066;2022-08-19T13:43:17;99729.00;;;37.49;24.23
60583;BME280;46415;47.536;19.066;2022-08-19T13:46:24;99731.97;;;37.79;23.32
60583;BME280;46415;47.536;19.066;2022-08-19T13:49:28;99721.38;;;38.10;23.30
60583;BME280;46415;47.536;19.066;2022-08-19T13:52:33;99722.78;;;38.17;23.16
60583;BME280;46415;47.536;19.066;2022-08-19T13:55:40;99718.25;;;38.38;22.87
60583;BME280;46415;47.536;19.066;2022-08-19T13:58:43;99706.19;;;38.71;22.63
60583;BME280;46415;47.536;19.066;2022-08-19T14:01:46;99700.78;;;38.71;22.15
60583;BME280;46415;47.536;19.066;2022-08-19T14:04:49;99696.19;;;38.87;21.94
60583;BME280;46415;47.536;19.066;2022-08-19T14:07:52;99703.59;;;38.96;21.88
60583;BME280;46415;47.536;19.066;2022-08-19T14:10:55;99699.72;;;38.77;22.05
60583;BME280;46415;47.536;19.066;2022-08-19T14:13:57;99720.84;;;38.13;24.26
60583;BME280;46415;47.536;19.066;2022-08-19T14:17:00;99726.13;;;37.02;27.01
60583;BME280;46415;47.536;19.066;2022-08-19T14:20:05;99723.72;;;36.57;28.18
60583;BME280;46415;47.536;19.066;2022-08-19T14:23:12;99748.87;;;36.19;29.79
60583;BME280;46415;47.536;19.066;2022-08-19T14:26:18;99759.84;;;35.45;31.04
60583;BME280;46415;47.536;19.066;2022-08-19T14:29:21;99757.69;;;34.04;33.10
60583;BME280;46415;47.536;19.066;2022-08-19T14:32:26;99750.44;;;33.70;34.23
60583;BME280;46415;47.536;19.066;2022-08-19T14:35:31;99745.88;;;33.93;33.87
60583;BME280;46415;47.536;19.066;2022-08-19T14:38:38;99732.38;;;34.52;33.45
60583;BME280;46415;47.536;19.066;2022-08-19T14:41:41;99736.31;;;34.84;32.59
60583;BME280;46415;47.536;19.066;2022-08-19T14:44:47;99735.84;;;34.64;32.63
60583;BME280;46415;47.536;19.066;2022-08-19T14:47:50;99744.03;;;34.29;33.43
60583;BME280;46415;47.536;19.066;2022-08-19T14:50:53;99742.69;;;34.55;33.17
60583;BME280;46415;47.536;19.066;2022-08-19T14:53:56;99751.03;;;34.41;32.84
60583;BME280;46415;47.536;19.066;2022-08-19T14:56:59;99754.66;;;34.12;33.57
60583;BME280;46415;47.536;19.066;2022-08-19T15:00:03;99761.94;;;33.17;33.47
60583;BME280;46415;47.536;19.066;2022-08-19T15:03:06;99760.09;;;32.69;34.09
60583;BME280;46415;47.536;19.066;2022-08-19T15:06:09;99775.34;;;32.32;34.37
60583;BME280;46415;47.536;19.066;2022-08-19T15:09:14;99770.25;;;32.24;34.24
60583;BME280;46415;47.536;19.066;2022-08-19T15:12:17;99770.78;;;32.15;34.07
60583;BME280;46415;47.536;19.066;2022-08-19T15:15:24;99776.38;;;32.07;32.92
60583;BME280;46415;47.536;19.066;2022-08-19T15:18:27;99786.09;;;31.83;32.97
60583;BME280;46415;47.536;19.066;2022-08-19T15:21:30;99791.88;;;31.86;32.59
60583;BME280;46415;47.536;19.066;2022-08-19T15:24:33;99808.47;;;31.70;32.62
60583;BME280;46415;47.536;19.066;2022-08-19T15:27:49;99806.41;;;31.72;32.75
60583;BME280;46415;47.536;19.066;2022-08-19T15:30:52;99820.63;;;31.41;34.01
60583;BME280;46415;47.536;19.066;2022-08-19T15:33:56;99831.59;;;31.40;34.19
60583;BME280;46415;47.536;19.066;2022-08-19T15:37:00;99848.78;;;31.26;35.07
60583;BME280;46415;47.536;19.066;2022-08-19T15:40:06;99859.38;;;31.07;34.69
60583;BME280;46415;47.536;19.066;2022-08-19T15:43:10;99863.50;;;30.90;35.20
60583;BME280;46415;47.536;19.066;2022-08-19T15:46:22;99849.28;;;30.90;35.59
60583;BME280;46415;47.536;19.066;2022-08-19T15:49:25;99826.22;;;30.82;35.45
60583;BME280;46415;47.536;19.066;2022-08-19T15:52:27;99815.50;;;30.82;35.32
60583;BME280;46415;47.536;19.066;2022-08-19T15:55:33;99776.09;;;30.89;35.84
60583;BME280;46415;47.536;19.066;2022-08-19T15:58:37;99762.34;;;30.79;36.40
60583;BME280;46415;47.536;19.066;2022-08-19T16:01:58;99768.97;;;30.70;36.63
60583;BME280;46415;47.536;19.066;2022-08-19T16:05:23;99775.59;;;30.67;36.63
60583;BME280;46415;47.536;19.066;2022-08-19T16:08:45;99769.81;;;30.64;36.67
60583;BME280;46415;47.536;19.066;2022-08-19T16:11:51;99770.22;;;30.67;35.53
60583;BME280;46415;47.536;19.066;2022-08-19T16:14:58;99760.13;;;30.63;35.30